Time;durP1;ratioP1;P1;durP2;ratioP2;P2;SDS_P1;SDS_P2;PMS_P1;PMS_P2;Temp;Humidity;BMP_temperature;BMP_pressure;BME280_temperature;BME280_humidity;BME280_pressure;Samples;Min_cycle;Max_cycle;Signal;HPM_P1;HPM_P2
2024/04/03 00:00:32;;;;;;;3.63;1.65;;;;;;;;;;5079940;28;20024;-55
2024/04/03 00:02:58;;;;;;;4.53;1.30;;;;;;;;;;5084017;28;20031;-56
2024/04/03 00:05:24;;;;;;;3.00;1.40;;;;;;;;;;5087418;28;20034;-55
2024/04/03 00:07:53;;;;;;;5.28;1.42;;;;;;;;;;5079167;28;20107;-56
2024/04/03 00:10:20;;;;;;;2.30;1.38;;;;;;;;;;5089245;28;20020;-56
2024/04/03 00:12:46;;;;;;;6.47;1.65;;;;;;;;;;5090648;28;20020;-57
2024/04/03 00:15:12;;;;;;;6.15;1.60;;;;;;;;;;5089797;28;20035;-57
2024/04/03 00:17:38;;;;;;;2.13;1.10;;;;;;;;;;5092312;28;20024;-58
2024/04/03 00:20:04;;;;;;;4.70;1.60;;;;;;;;;;5088167;28;20041;-60
2024/04/03 00:22:30;;;;;;;6.75;1.60;;;;;;;;;;5092469;28;20036;-60
2024/04/03 00:24:56;;;;;;;3.80;1.10;;;;;;;;;;5079122;28;20563;-59
2024/04/03 00:27:22;;;;;;;2.70;1.48;;;;;;;;;;5081191;28;20087;-59
2024/04/03 00:29:49;;;;;;;3.20;1.60;;;;;;;;;;5083073;28;20028;-60
2024/04/03 00:32:15;;;;;;;5.82;1.77;;;;;;;;;;5083781;28;20042;-59
2024/04/03 00:34:41;;;;;;;6.13;1.50;;;;;;;;;;5088870;28;20020;-60
2024/04/03 00:37:07;;;;;;;5.38;1.83;;;;;;;;;;5100434;28;20080;-60
2024/04/03 00:39:34;;;;;;;2.35;1.35;;;;;;;;;;5079788;28;20029;-60
2024/04/03 00:42:00;;;;;;;5.57;1.65;;;;;;;;;;5086947;28;20126;-60
2024/04/03 00:44:26;;;;;;;5.70;2.50;;;;;;;;;;5081034;28;20040;-60
2024/04/03 00:46:52;;;;;;;3.28;1.45;;;;;;;;;;5084513;28;20112;-60
2024/04/03 00:49:19;;;;;;;3.47;1.98;;;;;;;;;;5080563;28;20095;-60
2024/04/03 00:51:46;;;;;;;3.75;2.00;;;;;;;;;;5090207;28;20080;-60
2024/04/03 00:54:12;;;;;;;5.25;1.85;;;;;;;;;;5087577;28;20032;-59
2024/04/03 00:56:39;;;;;;;6.07;1.92;;;;;;;;;;5089653;28;20032;-59
2024/04/03 00:59:05;;;;;;;3.15;1.90;;;;;;;;;;5090006;28;20747;-60
2024/04/03 01:01:31;;;;;;;5.07;1.88;;;;;;;;;;5089807;28;20028;-60
2024/04/03 01:03:56;;;;;;;5.43;2.22;;;;;;;;;;5087552;28;20482;-60
2024/04/03 01:06:22;;;;;;;2.58;1.70;;;;;;;;;;5094165;28;20036;-60
2024/04/03 01:08:49;;;;;;;7.97;2.40;;;;;;;;;;5093546;28;20064;-60
2024/04/03 01:11:15;;;;;;;5.20;2.10;;;;;;;;;;5095313;28;20107;-60
2024/04/03 01:13:41;;;;;;;11.07;2.47;;;;;;;;;;5084475;28;20103;-60
2024/04/03 01:16:07;;;;;;;8.10;2.03;;;;;;;;;;5092359;28;20123;-59
2024/04/03 01:18:33;;;;;;;9.20;2.60;;;;;;;;;;5095276;28;20024;-60
2024/04/03 01:20:59;;;;;;;5.22;2.47;;;;;;;;;;5095127;28;20042;-60
2024/04/03 01:23:26;;;;;;;11.75;2.45;;;;;;;;;;5090482;28;20048;-60
2024/04/03 01:25:52;;;;;;;6.38;2.33;;;;;;;;;;5094970;28;20479;-59
2024/04/03 01:28:19;;;;;;;8.68;2.58;;;;;;;;;;5094290;28;20030;-59
2024/04/03 01:30:45;;;;;;;3.92;2.50;;;;;;;;;;5088724;28;20372;-60
2024/04/03 01:33:11;;;;;;;6.25;2.40;;;;;;;;;;5093720;28;20137;-60
2024/04/03 01:35:37;;;;;;;3.70;2.45;;;;;;;;;;5088322;28;20039;-59
2024/04/03 01:38:03;;;;;;;7.65;2.47;;;;;;;;;;5095078;28;20028;-59
2024/04/03 01:40:29;;;;;;;5.93;2.65;;;;;;;;;;5095216;28;20491;-60
2024/04/03 01:42:55;;;;;;;4.15;1.90;;;;;;;;;;5094718;28;20062;-60
2024/04/03 01:45:21;;;;;;;4.68;2.42;;;;;;;;;;5093733;28;20479;-59
2024/04/03 01:47:47;;;;;;;6.70;3.03;;;;;;;;;;5086114;28;20051;-60
2024/04/03 01:50:14;;;;;;;5.78;2.28;;;;;;;;;;5094564;28;20031;-60
2024/04/03 01:52:40;;;;;;;5.50;2.88;;;;;;;;;;5094352;28;20024;-60
2024/04/03 01:55:06;;;;;;;5.90;3.05;;;;;;;;;;5091796;28;20066;-59
2024/04/03 01:57:32;;;;;;;5.03;2.58;;;;;;;;;;5094476;28;20051;-60
2024/04/03 01:59:57;;;;;;;5.57;3.05;;;;;;;;;;5091971;28;20392;-60
2024/04/03 02:02:23;;;;;;;7.35;2.95;;;;;;;;;;5094458;28;20517;-60
2024/04/03 02:04:49;;;;;;;6.93;2.55;;;;;;;;;;5086734;28;20037;-60
2024/04/03 02:07:15;;;;;;;5.10;2.67;;;;;;;;;;5090154;28;20028;-60
2024/04/03 02:09:41;;;;;;;5.45;2.58;;;;;;;;;;5087207;28;20032;-60
2024/04/03 02:12:07;;;;;;;5.03;3.05;;;;;;;;;;5092498;28;20024;-59
2024/04/03 02:14:33;;;;;;;4.25;2.50;;;;;;;;;;5092440;28;20036;-60
2024/04/03 02:16:59;;;;;;;6.28;2.75;;;;;;;;;;5094300;28;20032;-60
2024/04/03 02:19:25;;;;;;;13.13;3.13;;;;;;;;;;5088509;28;20024;-60
2024/04/03 02:21:51;;;;;;;5.50;3.03;;;;;;;;;;5094244;28;20444;-59
2024/04/03 02:24:17;;;;;;;4.85;3.25;;;;;;;;;;5085270;28;20102;-61
2024/04/03 02:26:43;;;;;;;4.75;2.50;;;;;;;;;;5086630;28;20384;-60
2024/04/03 02:29:13;;;;;;;9.00;4.10;;;;;;;;;;5089182;28;20416;-59
2024/04/03 02:31:39;;;;;;;6.75;2.90;;;;;;;;;;5094204;28;20023;-60
2024/04/03 02:34:05;;;;;;;7.45;3.13;;;;;;;;;;5087848;28;20038;-60
2024/04/03 02:36:31;;;;;;;4.78;3.15;;;;;;;;;;5091438;28;20028;-60
2024/04/03 02:38:57;;;;;;;7.40;2.78;;;;;;;;;;5094323;28;20476;-54
2024/04/03 02:41:23;;;;;;;6.72;3.65;;;;;;;;;;5093826;28;20408;-56
2024/04/03 02:43:49;;;;;;;7.68;4.10;;;;;;;;;;5089238;28;20472;-56
2024/04/03 02:46:15;;;;;;;5.50;3.63;;;;;;;;;;5093215;28;20032;-55
2024/04/03 02:48:41;;;;;;;8.60;3.60;;;;;;;;;;5093601;28;20035;-55
2024/04/03 02:51:10;;;;;;;10.15;3.78;;;;;;;;;;5090376;28;20036;-56
2024/04/03 02:53:36;;;;;;;7.43;3.60;;;;;;;;;;5091307;28;20020;-55
2024/04/03 02:56:02;;;;;;;10.38;3.90;;;;;;;;;;5093618;28;20069;-55
2024/04/03 02:58:28;;;;;;;9.77;3.65;;;;;;;;;;5093366;28;20039;-55
2024/04/03 03:00:58;;;;;;;5.95;3.15;;;;;;;;;;5093082;28;20401;-55
2024/04/03 03:03:26;;;;;;;9.13;4.10;;;;;;;;;;5090425;28;20060;-56
2024/04/03 03:05:52;;;;;;;8.88;4.10;;;;;;;;;;5078540;28;20141;-56
2024/04/03 03:08:18;;;;;;;9.50;3.85;;;;;;;;;;5088415;28;20023;-54
2024/04/03 03:10:43;;;;;;;7.38;3.67;;;;;;;;;;5088058;28;20468;-56
2024/04/03 03:13:09;;;;;;;9.13;4.13;;;;;;;;;;5085081;28;20541;-56
2024/04/03 03:15:35;;;;;;;5.30;3.47;;;;;;;;;;5089993;28;20028;-56
2024/04/03 03:18:01;;;;;;;10.75;4.43;;;;;;;;;;5092080;28;20055;-56
2024/04/03 03:20:27;;;;;;;9.65;4.10;;;;;;;;;;5087312;28;20028;-56
2024/04/03 03:22:53;;;;;;;15.05;4.85;;;;;;;;;;5089652;28;20043;-55
2024/04/03 03:25:19;;;;;;;11.95;4.10;;;;;;;;;;5076432;28;20063;-56
2024/04/03 03:27:45;;;;;;;12.25;4.28;;;;;;;;;;5091672;28;20030;-57
2024/04/03 03:30:11;;;;;;;8.48;5.00;;;;;;;;;;5083600;28;20024;-57
2024/04/03 03:32:37;;;;;;;14.35;4.72;;;;;;;;;;5072588;28;20103;-55
2024/04/03 03:35:03;;;;;;;13.48;4.53;;;;;;;;;;5080690;28;20036;-55
2024/04/03 03:37:29;;;;;;;9.40;4.30;;;;;;;;;;5092990;28;20035;-55
2024/04/03 03:39:55;;;;;;;8.27;3.83;;;;;;;;;;5088235;28;20031;-56
2024/04/03 03:42:22;;;;;;;8.90;4.47;;;;;;;;;;5092459;28;20111;-55
2024/04/03 03:44:49;;;;;;;10.48;4.30;;;;;;;;;;5088203;28;20124;-56
2024/04/03 03:47:15;;;;;;;12.32;4.80;;;;;;;;;;5084250;28;20039;-55
2024/04/03 03:52:40;;;;;;;7.70;4.00;;;;;;;;;;5076759;28;20035;-59
2024/04/03 03:55:06;;;;;;;8.32;4.22;;;;;;;;;;5087019;28;20551;-59
2024/04/03 03:57:32;;;;;;;8.77;4.65;;;;;;;;;;5091495;28;20104;-58
2024/04/03 03:59:58;;;;;;;11.38;4.95;;;;;;;;;;5091954;28;20043;-58
2024/04/03 04:02:25;;;;;;;9.23;4.13;;;;;;;;;;5088430;28;20029;-59
2024/04/03 04:04:52;;;;;;;10.85;4.53;;;;;;;;;;5077521;28;20129;-60
2024/04/03 04:07:21;;;;;;;8.68;4.53;;;;;;;;;;5087999;28;20692;-59
2024/04/03 04:09:48;;;;;;;15.30;4.22;;;;;;;;;;5089620;28;20111;-58
2024/04/03 04:12:14;;;;;;;13.85;5.53;;;;;;;;;;5091369;28;20430;-59
2024/04/03 04:14:40;;;;;;;13.30;4.70;;;;;;;;;;5089594;28;20058;-59
2024/04/03 04:17:06;;;;;;;17.45;4.72;;;;;;;;;;5091858;28;20085;-59
2024/04/03 04:19:32;;;;;;;10.38;4.18;;;;;;;;;;5091590;28;20028;-59
2024/04/03 04:21:58;;;;;;;5.93;3.78;;;;;;;;;;5090800;28;20051;-58
2024/04/03 04:24:24;;;;;;;8.88;4.18;;;;;;;;;;5084883;28;20040;-59
2024/04/03 04:26:51;;;;;;;4.75;3.60;;;;;;;;;;5090384;28;20028;-60
2024/04/03 04:29:17;;;;;;;6.05;3.20;;;;;;;;;;5088832;28;20021;-59
2024/04/03 04:31:43;;;;;;;6.82;3.97;;;;;;;;;;5083059;28;20031;-59
2024/04/03 04:34:09;;;;;;;5.35;3.15;;;;;;;;;;5087357;28;20025;-60
2024/04/03 04:36:35;;;;;;;7.63;3.03;;;;;;;;;;5089424;28;20051;-57
2024/04/03 04:39:01;;;;;;;6.78;3.65;;;;;;;;;;5094426;28;20035;-59
2024/04/03 04:41:27;;;;;;;10.02;2.80;;;;;;;;;;5096375;28;20028;-59
2024/04/03 04:43:53;;;;;;;7.05;2.80;;;;;;;;;;5094660;28;20058;-60
2024/04/03 04:46:19;;;;;;;8.55;2.90;;;;;;;;;;5094759;28;20028;-58
2024/04/03 04:48:45;;;;;;;4.20;2.50;;;;;;;;;;5094935;28;20017;-58
2024/04/03 04:51:13;;;;;;;6.47;2.70;;;;;;;;;;5090906;28;20056;-59
2024/04/03 04:53:39;;;;;;;7.68;3.05;;;;;;;;;;5091453;28;20475;-59
2024/04/03 04:56:09;;;;;;;7.45;2.40;;;;;;;;;;5092097;28;20033;-59
2024/04/03 04:58:34;;;;;;;3.63;2.25;;;;;;;;;;5090838;28;20055;-54
2024/04/03 05:01:02;;;;;;;7.95;2.58;;;;;;;;;;5094019;28;20407;-55
2024/04/03 05:03:28;;;;;;;4.47;2.22;;;;;;;;;;5089121;28;20029;-57
2024/04/03 05:05:54;;;;;;;7.13;2.78;;;;;;;;;;5088690;28;20115;-56
2024/04/03 05:08:20;;;;;;;5.72;2.58;;;;;;;;;;5094126;28;20024;-56
2024/04/03 05:10:50;;;;;;;3.83;2.50;;;;;;;;;;5093894;28;20050;-56
2024/04/03 05:13:16;;;;;;;6.50;2.35;;;;;;;;;;5092871;28;20076;-56
2024/04/03 05:15:42;;;;;;;4.60;2.40;;;;;;;;;;5084000;28;20110;-56
2024/04/03 05:18:08;;;;;;;5.95;2.65;;;;;;;;;;5088276;28;20032;-57
2024/04/03 05:20:34;;;;;;;7.47;2.45;;;;;;;;;;5093153;28;20031;-55
2024/04/03 05:23:00;;;;;;;4.97;2.42;;;;;;;;;;5092172;28;20028;-57
2024/04/03 05:25:26;;;;;;;3.38;2.03;;;;;;;;;;5094275;28;20194;-56
2024/04/03 05:27:52;;;;;;;5.53;2.17;;;;;;;;;;5089590;28;20074;-56
2024/04/03 05:30:20;;;;;;;6.30;2.30;;;;;;;;;;5093357;28;20028;-56
2024/04/03 05:32:46;;;;;;;4.35;1.92;;;;;;;;;;5083191;28;20465;-56
2024/04/03 05:35:12;;;;;;;4.82;1.60;;;;;;;;;;5088462;28;20028;-56
2024/04/03 05:37:38;;;;;;;4.97;2.10;;;;;;;;;;5093604;28;20484;-56
2024/04/03 05:40:05;;;;;;;7.57;2.38;;;;;;;;;;5086907;28;20067;-56
2024/04/03 05:42:31;;;;;;;6.00;1.67;;;;;;;;;;5077354;28;20029;-57
2024/04/03 05:44:57;;;;;;;6.00;1.75;;;;;;;;;;5088300;28;20028;-56
2024/04/03 05:47:23;;;;;;;5.95;1.80;;;;;;;;;;5093391;28;20258;-56
2024/04/03 05:49:53;;;;;;;4.38;1.90;;;;;;;;;;5085472;28;20604;-57
2024/04/03 05:52:19;;;;;;;6.88;2.05;;;;;;;;;;5089185;28;20035;-56
2024/04/03 05:54:48;;;;;;;5.00;1.98;;;;;;;;;;5089736;28;20024;-56
2024/04/03 05:57:17;;;;;;;3.83;1.88;;;;;;;;;;5087348;28;20024;-56
2024/04/03 05:59:44;;;;;;;4.38;1.77;;;;;;;;;;5093148;28;20028;-56
2024/04/03 06:02:10;;;;;;;6.20;2.40;;;;;;;;;;5092851;28;20029;-57
2024/04/03 06:04:36;;;;;;;3.35;1.65;;;;;;;;;;5087419;28;20035;-56
2024/04/03 06:07:03;;;;;;;7.03;2.05;;;;;;;;;;5090825;28;20028;-56
2024/04/03 06:09:29;;;;;;;4.03;2.05;;;;;;;;;;5093258;28;20031;-56
2024/04/03 06:11:55;;;;;;;6.28;2.20;;;;;;;;;;5092203;28;20119;-56
2024/04/03 06:14:21;;;;;;;4.40;2.20;;;;;;;;;;5092612;28;20024;-56
2024/04/03 06:16:47;;;;;;;4.60;2.20;;;;;;;;;;5085154;28;20180;-57
2024/04/03 06:19:14;;;;;;;3.35;2.20;;;;;;;;;;5093362;28;20028;-55
2024/04/03 06:21:41;;;;;;;4.30;2.08;;;;;;;;;;5093437;28;20454;-55
2024/04/03 06:24:07;;;;;;;3.63;2.30;;;;;;;;;;5093336;28;20488;-56
2024/04/03 06:26:33;;;;;;;4.32;2.38;;;;;;;;;;5087386;28;20028;-56
2024/04/03 06:29:00;;;;;;;4.03;2.63;;;;;;;;;;5083032;28;20045;-56
2024/04/03 06:31:26;;;;;;;4.70;2.42;;;;;;;;;;5104278;27;20451;-56
2024/04/03 06:33:55;;;;;;;6.07;3.00;;;;;;;;;;5089996;28;20038;-56
2024/04/03 06:36:21;;;;;;;7.13;3.13;;;;;;;;;;5096030;28;20411;-57
2024/04/03 06:38:47;;;;;;;4.93;2.80;;;;;;;;;;5092627;28;20027;-56
2024/04/03 06:41:13;;;;;;;7.80;3.17;;;;;;;;;;5092150;28;20035;-56
2024/04/03 06:43:39;;;;;;;6.93;3.42;;;;;;;;;;5084822;28;20052;-54
2024/04/03 06:46:05;;;;;;;8.27;3.17;;;;;;;;;;5086727;28;20074;-56
2024/04/03 06:48:32;;;;;;;9.50;3.05;;;;;;;;;;5099277;28;20032;-57
2024/04/03 06:50:58;;;;;;;5.75;3.08;;;;;;;;;;5084446;28;20028;-56
2024/04/03 06:53:24;;;;;;;10.02;3.28;;;;;;;;;;5090599;28;20024;-56
2024/04/03 06:55:57;;;;;;;11.95;3.72;;;;;;;;;;5090926;28;20388;-56
2024/04/03 06:58:23;;;;;;;8.57;3.40;;;;;;;;;;5077868;28;20028;-56
2024/04/03 07:00:49;;;;;;;5.13;3.20;;;;;;;;;;5085484;28;20112;-57
2024/04/03 07:03:16;;;;;;;5.88;3.00;;;;;;;;;;5084153;28;20111;-57
2024/04/03 07:05:44;;;;;;;7.15;3.13;;;;;;;;;;5085835;28;20035;-56
2024/04/03 07:08:10;;;;;;;8.75;3.22;;;;;;;;;;5092740;28;20062;-56
2024/04/03 07:10:35;;;;;;;8.68;3.00;;;;;;;;;;5086810;28;20032;-56
2024/04/03 07:13:03;;;;;;;5.72;3.13;;;;;;;;;;5083049;28;20028;-58
2024/04/03 07:15:29;;;;;;;6.25;2.70;;;;;;;;;;5089507;28;20069;-56
2024/04/03 07:17:56;;;;;;;6.63;2.95;;;;;;;;;;5087027;28;20032;-57
2024/04/03 07:20:26;;;;;;;4.72;2.67;;;;;;;;;;5092207;28;20028;-57
2024/04/03 07:22:58;;;;;;;4.75;2.58;;;;;;;;;;5100717;28;20400;-57
2024/04/03 07:25:25;;;;;;;5.95;2.25;;;;;;;;;;5089772;28;20040;-57
2024/04/03 07:27:51;;;;;;;5.63;2.50;;;;;;;;;;5086648;28;20107;-56
2024/04/03 07:30:18;;;;;;;4.45;2.33;;;;;;;;;;5089445;28;20016;-57
2024/04/03 07:32:44;;;;;;;8.73;2.05;;;;;;;;;;5091245;28;20061;-56
2024/04/03 07:35:09;;;;;;;6.65;2.03;;;;;;;;;;5086963;28;20028;-56
2024/04/03 07:37:44;;;;;;;5.43;1.90;;;;;;;;;;5096289;28;20035;-58
2024/04/03 07:40:10;;;;;;;5.15;2.00;;;;;;;;;;5090660;28;20031;-59
2024/04/03 07:42:40;;;;;;;3.30;1.80;;;;;;;;;;5085088;28;20150;-58
2024/04/03 07:45:07;;;;;;;6.35;2.13;;;;;;;;;;5082583;28;20073;-59
2024/04/03 07:47:33;;;;;;;3.47;1.75;;;;;;;;;;5091353;28;20059;-55
2024/04/03 07:49:59;;;;;;;3.38;1.80;;;;;;;;;;5090453;28;20464;-60
2024/04/03 07:52:25;;;;;;;5.07;1.88;;;;;;;;;;5082359;28;20464;-57
2024/04/03 07:54:51;;;;;;;2.67;1.90;;;;;;;;;;5086733;28;20441;-61
2024/04/03 07:57:17;;;;;;;6.60;1.90;;;;;;;;;;5091145;28;20031;-59
2024/04/03 07:59:43;;;;;;;8.15;2.20;;;;;;;;;;5084536;28;20028;-60
2024/04/03 08:02:09;;;;;;;3.88;2.15;;;;;;;;;;5074301;28;20100;-60
2024/04/03 08:04:36;;;;;;;3.30;1.52;;;;;;;;;;5087119;28;20016;-59
2024/04/03 08:07:02;;;;;;;2.67;1.75;;;;;;;;;;5076647;28;20028;-59
2024/04/03 08:09:32;;;;;;;2.35;1.60;;;;;;;;;;5084683;28;20035;-60
2024/04/03 08:11:58;;;;;;;2.88;1.40;;;;;;;;;;5088674;28;20035;-59
2024/04/03 08:14:24;;;;;;;2.47;1.65;;;;;;;;;;5083244;28;20029;-59
2024/04/03 08:16:49;;;;;;;1.88;1.27;;;;;;;;;;5087376;28;20067;-60
2024/04/03 08:19:15;;;;;;;2.30;1.52;;;;;;;;;;5086562;28;20033;-58
2024/04/03 08:21:44;;;;;;;7.60;1.75;;;;;;;;;;5085566;28;20079;-59
2024/04/03 08:24:10;;;;;;;3.65;2.05;;;;;;;;;;5083348;28;20074;-60
2024/04/03 08:26:36;;;;;;;4.78;2.80;;;;;;;;;;5084292;28;20430;-60
2024/04/03 08:29:03;;;;;;;6.90;3.20;;;;;;;;;;5088181;28;20106;-60
2024/04/03 08:31:29;;;;;;;6.03;3.08;;;;;;;;;;5086572;28;20030;-60
2024/04/03 08:33:54;;;;;;;4.93;2.63;;;;;;;;;;5080138;28;20107;-60
2024/04/03 08:36:20;;;;;;;6.57;3.53;;;;;;;;;;5093479;28;20069;-59
2024/04/03 08:38:46;;;;;;;11.55;3.47;;;;;;;;;;5087717;28;20040;-60
2024/04/03 08:41:12;;;;;;;5.20;2.95;;;;;;;;;;5084340;28;20028;-58
2024/04/03 08:43:38;;;;;;;8.30;3.65;;;;;;;;;;5085354;28;20472;-63
2024/04/03 08:46:04;;;;;;;5.68;3.00;;;;;;;;;;5088503;28;20386;-60
2024/04/03 08:48:31;;;;;;;6.25;3.70;;;;;;;;;;5087541;28;20028;-57
2024/04/03 08:50:57;;;;;;;7.13;3.17;;;;;;;;;;5090431;28;20032;-57
2024/04/03 08:53:24;;;;;;;5.40;3.30;;;;;;;;;;5090304;28;20032;-56
2024/04/03 08:55:54;;;;;;;8.88;3.80;;;;;;;;;;5086751;28;20035;-57
2024/04/03 08:58:20;;;;;;;5.57;3.50;;;;;;;;;;5080457;28;20107;-57
2024/04/03 09:00:46;;;;;;;7.30;3.72;;;;;;;;;;5084393;28;20142;-57
2024/04/03 09:03:13;;;;;;;9.18;4.05;;;;;;;;;;5084651;28;20507;-57
2024/04/03 09:05:39;;;;;;;6.00;3.60;;;;;;;;;;5084998;28;20039;-58
2024/04/03 09:08:06;;;;;;;6.25;3.78;;;;;;;;;;5087290;28;20144;-58
2024/04/03 09:10:43;;;;;;;7.15;3.80;;;;;;;;;;5085726;28;20111;-57
2024/04/03 09:13:10;;;;;;;5.47;3.70;;;;;;;;;;5087632;28;20499;-56
2024/04/03 09:15:36;;;;;;;7.20;3.97;;;;;;;;;;5087471;28;20047;-57
2024/04/03 09:18:06;;;;;;;11.40;3.50;;;;;;;;;;5089970;28;20402;-58
2024/04/03 09:20:33;;;;;;;6.05;3.25;;;;;;;;;;5083913;28;20388;-58
2024/04/03 09:22:59;;;;;;;5.18;3.42;;;;;;;;;;5090563;28;20040;-57
2024/04/03 09:25:25;;;;;;;7.60;3.40;;;;;;;;;;5092324;28;20028;-58
2024/04/03 09:27:58;;;;;;;4.85;3.30;;;;;;;;;;5088784;28;20114;-57
2024/04/03 09:30:24;;;;;;;6.13;3.47;;;;;;;;;;5093723;28;20405;-58
2024/04/03 09:32:55;;;;;;;10.38;3.63;;;;;;;;;;5093549;28;20476;-58
2024/04/03 09:35:22;;;;;;;5.95;3.25;;;;;;;;;;5092769;28;20024;-58
2024/04/03 09:37:47;;;;;;;6.85;2.92;;;;;;;;;;5093996;28;20476;-58
2024/04/03 09:40:14;;;;;;;6.43;3.13;;;;;;;;;;5092668;28;20024;-58
2024/04/03 09:42:40;;;;;;;8.23;3.13;;;;;;;;;;5093900;28;20024;-58
2024/04/03 09:45:07;;;;;;;6.88;3.28;;;;;;;;;;5087005;28;20025;-57
2024/04/03 09:47:35;;;;;;;6.93;2.53;;;;;;;;;;5093681;28;20553;-56
2024/04/03 09:50:02;;;;;;;7.35;3.30;;;;;;;;;;5091519;28;20024;-58
2024/04/03 09:52:29;;;;;;;12.23;3.08;;;;;;;;;;5091180;28;20051;-57
2024/04/03 09:54:55;;;;;;;6.30;2.88;;;;;;;;;;5090672;28;20028;-58
2024/04/03 09:57:22;;;;;;;5.63;2.65;;;;;;;;;;5091456;28;20028;-57
2024/04/03 09:59:51;;;;;;;4.03;2.65;;;;;;;;;;5087032;28;20039;-59
2024/04/03 10:02:17;;;;;;;7.00;2.92;;;;;;;;;;5087776;28;20399;-59
2024/04/03 10:04:43;;;;;;;9.68;3.17;;;;;;;;;;5092881;28;20421;-58
2024/04/03 10:07:15;;;;;;;6.70;2.67;;;;;;;;;;5087778;28;20108;-59
2024/04/03 10:09:41;;;;;;;5.93;3.10;;;;;;;;;;5093496;28;20177;-58
2024/04/03 10:12:15;;;;;;;6.95;3.03;;;;;;;;;;5092811;28;20024;-59
2024/04/03 10:14:41;;;;;;;5.63;2.53;;;;;;;;;;5093311;28;20019;-60
2024/04/03 10:17:15;;;;;;;6.93;2.70;;;;;;;;;;5086114;28;20490;-60
2024/04/03 10:19:42;;;;;;;7.13;2.75;;;;;;;;;;5090428;28;20063;-59
2024/04/03 10:22:08;;;;;;;7.05;2.45;;;;;;;;;;5088551;28;20028;-59
2024/04/03 10:24:34;;;;;;;6.50;2.70;;;;;;;;;;5093035;28;20392;-59
2024/04/03 10:27:00;;;;;;;6.53;2.53;;;;;;;;;;5088642;28;20032;-60
2024/04/03 10:29:26;;;;;;;6.78;2.75;;;;;;;;;;5088769;28;20031;-60
2024/04/03 10:31:52;;;;;;;8.80;2.75;;;;;;;;;;5084566;28;20460;-60
2024/04/03 10:34:18;;;;;;;10.60;2.95;;;;;;;;;;5081216;28;20099;-60
2024/04/03 10:36:44;;;;;;;3.80;2.40;;;;;;;;;;5096683;28;20120;-60
2024/04/03 10:39:11;;;;;;;13.05;2.65;;;;;;;;;;5091699;28;20093;-61
2024/04/03 10:41:37;;;;;;;6.40;2.72;;;;;;;;;;5090762;28;20076;-60
2024/04/03 10:44:03;;;;;;;9.88;3.05;;;;;;;;;;5091627;28;20115;-60
2024/04/03 10:46:29;;;;;;;5.43;2.45;;;;;;;;;;5091726;28;20028;-60
2024/04/03 10:48:58;;;;;;;7.63;3.15;;;;;;;;;;5091657;28;20104;-60
2024/04/03 10:51:25;;;;;;;8.38;3.33;;;;;;;;;;5092056;28;20024;-60
2024/04/03 10:53:51;;;;;;;12.80;3.15;;;;;;;;;;5083976;28;20024;-60
2024/04/03 10:56:18;;;;;;;7.90;2.75;;;;;;;;;;5087213;28;20042;-60
2024/04/03 10:58:44;;;;;;;5.55;2.67;;;;;;;;;;5092474;28;20032;-60
2024/04/03 11:01:11;;;;;;;8.35;3.70;;;;;;;;;;5088410;28;20058;-60
2024/04/03 11:03:39;;;;;;;9.02;2.88;;;;;;;;;;5088509;28;20090;-60
2024/04/03 11:06:05;;;;;;;7.07;3.20;;;;;;;;;;5092138;28;20028;-61
2024/04/03 11:08:31;;;;;;;6.43;3.33;;;;;;;;;;5089515;28;20028;-56
2024/04/03 11:11:03;;;;;;;5.43;2.92;;;;;;;;;;5089273;28;20060;-57
2024/04/03 11:13:29;;;;;;;7.18;3.00;;;;;;;;;;5088848;28;20119;-57
2024/04/03 11:15:55;;;;;;;8.60;3.17;;;;;;;;;;5083410;28;20101;-57
2024/04/03 11:18:21;;;;;;;6.10;3.42;;;;;;;;;;5091556;28;20035;-57
2024/04/03 11:20:48;;;;;;;12.88;3.35;;;;;;;;;;5090309;28;20093;-57
2024/04/03 11:23:14;;;;;;;6.05;2.88;;;;;;;;;;5086831;28;20515;-57
2024/04/03 11:25:40;;;;;;;8.75;2.92;;;;;;;;;;5091780;28;20032;-60
2024/04/03 11:28:06;;;;;;;7.78;3.85;;;;;;;;;;5088825;28;20034;-57
2024/04/03 11:30:33;;;;;;;12.50;3.50;;;;;;;;;;5089888;28;20028;-58
2024/04/03 11:32:59;;;;;;;7.75;3.17;;;;;;;;;;5085256;28;20028;-58
2024/04/03 11:35:25;;;;;;;10.18;3.67;;;;;;;;;;5086485;28;20027;-57
2024/04/03 11:37:51;;;;;;;7.03;3.45;;;;;;;;;;5095821;28;20086;-58
2024/04/03 11:40:17;;;;;;;7.43;3.03;;;;;;;;;;5091804;28;20039;-58
2024/04/03 11:42:43;;;;;;;6.20;3.08;;;;;;;;;;5089197;28;20047;-58
2024/04/03 11:45:09;;;;;;;9.50;3.75;;;;;;;;;;5084468;28;20021;-58
2024/04/03 11:47:35;;;;;;;8.32;3.47;;;;;;;;;;5084895;28;20043;-58
2024/04/03 11:50:02;;;;;;;8.70;3.70;;;;;;;;;;5090391;28;20111;-58
2024/04/03 11:52:29;;;;;;;11.95;4.10;;;;;;;;;;5085853;28;20543;-58
2024/04/03 11:54:55;;;;;;;9.45;3.95;;;;;;;;;;5079264;28;20054;-57
2024/04/03 11:57:21;;;;;;;9.15;4.32;;;;;;;;;;5091175;28;20032;-58
2024/04/03 11:59:48;;;;;;;7.57;4.38;;;;;;;;;;5091134;28;20149;-57
2024/04/03 12:02:13;;;;;;;7.32;3.55;;;;;;;;;;5081577;28;20031;-58
2024/04/03 12:04:39;;;;;;;8.02;4.20;;;;;;;;;;5079586;28;20040;-58
2024/04/03 12:07:05;;;;;;;5.72;3.97;;;;;;;;;;5086241;28;20085;-58
2024/04/03 12:09:31;;;;;;;12.38;5.00;;;;;;;;;;5088458;28;20472;-58
2024/04/03 12:11:57;;;;;;;11.95;4.50;;;;;;;;;;5089534;28;20027;-58
2024/04/03 12:14:23;;;;;;;6.53;3.85;;;;;;;;;;5089228;28;20270;-57
2024/04/03 12:16:52;;;;;;;10.15;4.10;;;;;;;;;;5089697;28;20110;-58
2024/04/03 12:22:06;;;;;;;13.65;4.38;;;;;;;;;;5083352;28;20047;-57
2024/04/03 12:24:32;;;;;;;10.38;3.97;;;;;;;;;;5087723;28;20052;-57
2024/04/03 12:26:59;;;;;;;9.18;4.30;;;;;;;;;;5085813;28;20028;-57
2024/04/03 12:29:25;;;;;;;10.25;4.43;;;;;;;;;;5087127;28;20017;-58
2024/04/03 12:31:51;;;;;;;9.65;4.10;;;;;;;;;;5085262;28;20094;-57
2024/04/03 12:34:17;;;;;;;11.77;4.40;;;;;;;;;;5087182;28;20073;-58
2024/04/03 12:36:43;;;;;;;13.85;4.03;;;;;;;;;;5087464;28;20081;-57
2024/04/03 12:39:09;;;;;;;12.02;4.88;;;;;;;;;;5087056;28;20020;-58
2024/04/03 12:41:36;;;;;;;9.05;4.57;;;;;;;;;;5087489;28;20051;-58
2024/04/03 12:44:02;;;;;;;10.20;4.40;;;;;;;;;;5082700;28;20036;-58
2024/04/03 12:46:28;;;;;;;8.38;4.78;;;;;;;;;;5083234;28;20050;-58
2024/04/03 12:48:54;;;;;;;12.30;5.22;;;;;;;;;;5080833;28;20148;-57
2024/04/03 12:51:20;;;;;;;14.98;5.18;;;;;;;;;;5089759;28;20461;-58
2024/04/03 12:53:46;;;;;;;11.10;4.53;;;;;;;;;;5083043;28;20031;-57
2024/04/03 12:56:12;;;;;;;10.02;4.25;;;;;;;;;;5082429;28;20032;-58
2024/04/03 12:58:38;;;;;;;11.13;4.53;;;;;;;;;;5085696;28;20031;-58
2024/04/03 13:01:05;;;;;;;10.23;4.97;;;;;;;;;;5093042;28;20032;-58
2024/04/03 13:03:32;;;;;;;8.45;4.55;;;;;;;;;;5090699;28;20081;-57
2024/04/03 13:05:57;;;;;;;13.52;4.68;;;;;;;;;;5091797;28;20138;-58
2024/04/03 13:08:23;;;;;;;11.85;4.95;;;;;;;;;;5091645;28;20043;-58
2024/04/03 13:10:49;;;;;;;11.23;4.40;;;;;;;;;;5089709;28;20069;-58
2024/04/03 13:13:15;;;;;;;9.27;3.78;;;;;;;;;;5087418;28;20376;-58
2024/04/03 13:15:41;;;;;;;17.00;4.93;;;;;;;;;;5086987;28;20130;-58
2024/04/03 13:18:09;;;;;;;15.68;4.95;;;;;;;;;;5092010;28;20036;-58
2024/04/03 13:20:35;;;;;;;9.55;4.25;;;;;;;;;;5092524;28;20026;-58
2024/04/03 13:23:01;;;;;;;10.32;4.50;;;;;;;;;;5094071;28;20024;-58
2024/04/03 13:25:28;;;;;;;7.90;3.67;;;;;;;;;;5086844;28;20568;-58
2024/04/03 13:27:54;;;;;;;11.70;4.30;;;;;;;;;;5091124;28;20032;-61
2024/04/03 13:30:20;;;;;;;9.27;4.30;;;;;;;;;;5085923;28;20048;-61
2024/04/03 13:32:46;;;;;;;10.50;3.67;;;;;;;;;;5092008;28;20118;-61
2024/04/03 13:35:13;;;;;;;14.32;6.25;;;;;;;;;;5086040;28;20415;-61
2024/04/03 13:37:43;;;;;;;8.18;4.00;;;;;;;;;;5100189;28;20028;-61
2024/04/03 13:40:09;;;;;;;20.58;4.90;;;;;;;;;;5088311;28;20115;-59
2024/04/03 13:42:35;;;;;;;10.30;4.20;;;;;;;;;;5090517;28;20050;-59
2024/04/03 13:45:02;;;;;;;8.52;3.83;;;;;;;;;;5089315;28;20047;-59
2024/04/03 13:47:28;;;;;;;9.70;3.55;;;;;;;;;;5082036;28;20028;-60
2024/04/03 13:49:54;;;;;;;10.55;4.20;;;;;;;;;;5075623;28;20033;-60
2024/04/03 13:52:20;;;;;;;8.65;4.32;;;;;;;;;;5079130;28;20035;-59
2024/04/03 13:54:46;;;;;;;13.10;4.05;;;;;;;;;;5088863;28;20483;-60
2024/04/03 13:57:13;;;;;;;9.73;4.22;;;;;;;;;;5090655;28;20403;-60
2024/04/03 13:59:39;;;;;;;13.60;3.85;;;;;;;;;;5085529;28;20384;-59
2024/04/03 14:02:05;;;;;;;11.07;4.15;;;;;;;;;;5089536;28;20450;-59
2024/04/03 14:04:31;;;;;;;9.38;3.70;;;;;;;;;;5088770;28;20131;-59
2024/04/03 14:06:57;;;;;;;9.77;3.53;;;;;;;;;;5089885;28;20103;-59
2024/04/03 14:09:23;;;;;;;10.65;4.10;;;;;;;;;;5089446;28;20024;-59
2024/04/03 14:11:49;;;;;;;10.10;4.07;;;;;;;;;;5092497;28;20103;-59
2024/04/03 14:14:16;;;;;;;8.70;3.70;;;;;;;;;;5079230;28;20031;-59
2024/04/03 14:16:42;;;;;;;10.07;4.15;;;;;;;;;;5093725;28;20054;-60
2024/04/03 14:19:08;;;;;;;11.10;4.65;;;;;;;;;;5091102;28;20709;-59
2024/04/03 14:21:34;;;;;;;10.25;3.58;;;;;;;;;;5088765;28;20035;-60
2024/04/03 14:23:59;;;;;;;6.90;3.67;;;;;;;;;;5091471;28;20052;-59
2024/04/03 14:26:26;;;;;;;10.38;3.55;;;;;;;;;;5093571;28;20035;-59
2024/04/03 14:28:51;;;;;;;12.73;4.25;;;;;;;;;;5090375;28;20024;-59
2024/04/03 14:31:18;;;;;;;22.58;8.93;;;;;;;;;;5092973;28;20120;-59
2024/04/03 14:33:44;;;;;;;12.13;3.97;;;;;;;;;;5092507;28;20032;-59
2024/04/03 14:36:10;;;;;;;9.10;4.88;;;;;;;;;;5092387;28;20039;-59
2024/04/03 14:38:36;;;;;;;11.35;3.92;;;;;;;;;;5091314;28;20028;-59
2024/04/03 14:41:03;;;;;;;7.90;3.42;;;;;;;;;;5092667;28;20039;-60